sensor_id;sensor_type;location;lat;lon;timestamp;P1;durP1;ratioP1;P2;durP2;ratioP2
7495;SDS011;3789;47.064;15.482;2022-08-19T00:02:00;4.20;;;2.80;;
7495;SDS011;3789;47.064;15.482;2022-08-19T00:04:33;10.43;;;3.17;;
7495;SDS011;3789;47.064;15.482;2022-08-19T00:07:05;4.55;;;2.72;;
7495;SDS011;3789;47.064;15.482;2022-08-19T00:09:42;7.07;;;3.22;;
7495;SDS011;3789;47.064;15.482;2022-08-19T00:12:22;8.63;;;3.20;;
7495;SDS011;3789;47.064;15.482;2022-08-19T00:14:52;8.23;;;3.05;;
7495;SDS011;3789;47.064;15.482;2022-08-19T00:17:22;6.18;;;2.90;;
7495;SDS011;3789;47.064;15.482;2022-08-19T00:19:49;6.80;;;3.40;;
7495;SDS011;3789;47.064;15.482;2022-08-19T00:22:19;6.55;;;3.70;;
7495;SDS011;3789;47.064;15.482;2022-08-19T00:24:49;5.45;;;2.85;;
7495;SDS011;3789;47.064;15.482;2022-08-19T00:27:21;5.43;;;2.70;;
7495;SDS011;3789;47.064;15.482;2022-08-19T00:29:58;5.30;;;2.80;;
7495;SDS011;3789;47.064;15.482;2022-08-19T00:32:30;9.15;;;3.70;;
7495;SDS011;3789;47.064;15.482;2022-08-19T00:35:02;5.07;;;3.08;;
7495;SDS011;3789;47.064;15.482;2022-08-19T00:37:30;6.32;;;2.90;;
7495;SDS011;3789;47.064;15.482;2022-08-19T00:39:59;7.15;;;2.70;;
7495;SDS011;3789;47.064;15.482;2022-08-19T00:42:27;5.25;;;3.00;;
7495;SDS011;3789;47.064;15.482;2022-08-19T00:44:57;6.15;;;2.95;;
7495;SDS011;3789;47.064;15.482;2022-08-19T00:47:26;8.68;;;3.10;;
7495;SDS011;3789;47.064;15.482;2022-08-19T00:49:55;6.72;;;3.15;;
7495;SDS011;3789;47.064;15.482;2022-08-19T00:52:29;5.85;;;2.72;;
7495;SDS011;3789;47.064;15.482;2022-08-19T00:55:02;4.65;;;2.83;;
7495;SDS011;3789;47.064;15.482;2022-08-19T00:57:38;6.78;;;3.00;;
7495;SDS011;3789;47.064;15.482;2022-08-19T01:00:10;5.22;;;2.97;;
7495;SDS011;3789;47.064;15.482;2022-08-19T01:02:43;3.47;;;2.40;;
7495;SDS011;3789;47.064;15.482;2022-08-19T01:05:16;5.57;;;2.95;;
7495;SDS011;3789;47.064;15.482;2022-08-19T01:07:56;6.45;;;3.10;;
7495;SDS011;3789;47.064;15.482;2022-08-19T01:10:28;5.03;;;2.80;;
7495;SDS011;3789;47.064;15.482;2022-08-19T01:13:03;6.07;;;3.40;;
7495;SDS011;3789;47.064;15.482;2022-08-19T01:15:42;6.97;;;3.15;;
7495;SDS011;3789;47.064;15.482;2022-08-19T01:18:13;8.38;;;3.80;;
7495;SDS011;3789;47.064;15.482;2022-08-19T01:20:43;6.60;;;3.90;;
7495;SDS011;3789;47.064;15.482;2022-08-19T01:23:15;8.88;;;4.38;;
7495;SDS011;3789;47.064;15.482;2022-08-19T01:25:51;9.25;;;4.25;;
7495;SDS011;3789;47.064;15.482;2022-08-19T01:28:35;6.50;;;4.63;;
7495;SDS011;3789;47.064;15.482;2022-08-19T01:31:11;8.02;;;4.45;;
7495;SDS011;3789;47.064;15.482;2022-08-19T01:33:56;6.95;;;4.82;;
7495;SDS011;3789;47.064;15.482;2022-08-19T01:36:42;6.28;;;4.45;;
7495;SDS011;3789;47.064;15.482;2022-08-19T01:39:17;9.00;;;4.90;;
7495;SDS011;3789;47.064;15.482;2022-08-19T01:41:47;7.57;;;4.78;;
7495;SDS011;3789;47.064;15.482;2022-08-19T01:44:17;8.60;;;4.75;;
7495;SDS011;3789;47.064;15.482;2022-08-19T01:46:51;8.50;;;4.93;;
7495;SDS011;3789;47.064;15.482;2022-08-19T01:49:23;7.10;;;4.88;;
7495;SDS011;3789;47.064;15.482;2022-08-19T01:51:56;7.82;;;4.38;;
7495;SDS011;3789;47.064;15.482;2022-08-19T01:54:30;8.27;;;4.28;;
7495;SDS011;3789;47.064;15.482;2022-08-19T01:57:01;9.18;;;4.43;;
7495;SDS011;3789;47.064;15.482;2022-08-19T01:59:34;6.50;;;4.22;;
7495;SDS011;3789;47.064;15.482;2022-08-19T02:02:04;8.98;;;4.53;;
7495;SDS011;3789;47.064;15.482;2022-08-19T02:04:36;8.38;;;4.38;;
7495;SDS011;3789;47.064;15.482;2022-08-19T02:07:05;6.93;;;4.13;;
7495;SDS011;3789;47.064;15.482;2022-08-19T02:09:38;6.28;;;3.97;;
7495;SDS011;3789;47.064;15.482;2022-08-19T02:12:08;8.02;;;4.00;;
7495;SDS011;3789;47.064;15.482;2022-08-19T02:14:40;8.98;;;4.00;;
7495;SDS011;3789;47.064;15.482;2022-08-19T02:17:10;8.43;;;3.92;;
7495;SDS011;3789;47.064;15.482;2022-08-19T02:19:41;6.13;;;4.00;;
7495;SDS011;3789;47.064;15.482;2022-08-19T02:22:11;8.02;;;4.10;;
7495;SDS011;3789;47.064;15.482;2022-08-19T02:24:40;5.53;;;4.13;;
7495;SDS011;3789;47.064;15.482;2022-08-19T02:27:09;7.60;;;3.65;;
7495;SDS011;3789;47.064;15.482;2022-08-19T02:29:40;8.60;;;3.55;;
7495;SDS011;3789;47.064;15.482;2022-08-19T02:32:08;8.13;;;4.55;;
7495;SDS011;3789;47.064;15.482;2022-08-19T02:34:36;8.32;;;3.83;;
7495;SDS011;3789;47.064;15.482;2022-08-19T02:37:07;8.20;;;3.97;;
7495;SDS011;3789;47.064;15.482;2022-08-19T02:40:01;7.75;;;4.40;;
7495;SDS011;3789;47.064;15.482;2022-08-19T02:42:40;7.65;;;3.60;;
7495;SDS011;3789;47.064;15.482;2022-08-19T02:45:09;6.47;;;4.30;;
7495;SDS011;3789;47.064;15.482;2022-08-19T02:47:42;8.82;;;4.63;;
7495;SDS011;3789;47.064;15.482;2022-08-19T02:50:12;8.80;;;3.88;;
7495;SDS011;3789;47.064;15.482;2022-08-19T02:52:45;6.38;;;4.15;;
7495;SDS011;3789;47.064;15.482;2022-08-19T02:55:21;6.53;;;3.65;;
7495;SDS011;3789;47.064;15.482;2022-08-19T02:57:49;7.82;;;3.75;;
7495;SDS011;3789;47.064;15.482;2022-08-19T03:00:19;7.68;;;3.90;;
7495;SDS011;3789;47.064;15.482;2022-08-19T03:02:47;4.80;;;3.75;;
7495;SDS011;3789;47.064;15.482;2022-08-19T03:05:19;7.03;;;3.65;;
7495;SDS011;3789;47.064;15.482;2022-08-19T03:08:08;6.15;;;3.58;;
7495;SDS011;3789;47.064;15.482;2022-08-19T03:10:42;5.88;;;3.85;;
7495;SDS011;3789;47.064;15.482;2022-08-19T03:13:23;6.75;;;3.72;;
7495;SDS011;3789;47.064;15.482;2022-08-19T03:15:50;6.13;;;3.90;;
7495;SDS011;3789;47.064;15.482;2022-08-19T03:18:19;4.85;;;3.60;;
7495;SDS011;3789;47.064;15.482;2022-08-19T03:20:49;7.40;;;4.45;;
7495;SDS011;3789;47.064;15.482;2022-08-19T03:23:29;8.18;;;3.88;;
7495;SDS011;3789;47.064;15.482;2022-08-19T03:25:59;6.85;;;4.40;;
7495;SDS011;3789;47.064;15.482;2022-08-19T03:28:43;6.82;;;3.92;;
7495;SDS011;3789;47.064;15.482;2022-08-19T03:31:26;6.43;;;3.63;;
7495;SDS011;3789;47.064;15.482;2022-08-19T03:34:11;5.70;;;3.72;;
7495;SDS011;3789;47.064;15.482;2022-08-19T03:36:45;7.78;;;4.50;;
7495;SDS011;3789;47.064;15.482;2022-08-19T03:39:14;8.27;;;3.92;;
7495;SDS011;3789;47.064;15.482;2022-08-19T03:41:46;4.93;;;3.58;;
7495;SDS011;3789;47.064;15.482;2022-08-19T03:44:38;5.93;;;4.22;;
7495;SDS011;3789;47.064;15.482;2022-08-19T03:47:06;11.35;;;4.50;;
7495;SDS011;3789;47.064;15.482;2022-08-19T03:49:33;8.32;;;4.88;;
7495;SDS011;3789;47.064;15.482;2022-08-19T03:52:11;8.02;;;5.05;;
7495;SDS011;3789;47.064;15.482;2022-08-19T03:54:40;10.43;;;5.68;;
7495;SDS011;3789;47.064;15.482;2022-08-19T03:57:12;8.07;;;3.78;;
7495;SDS011;3789;47.064;15.482;2022-08-19T03:59:43;6.80;;;3.85;;
7495;SDS011;3789;47.064;15.482;2022-08-19T04:02:19;8.45;;;3.80;;
7495;SDS011;3789;47.064;15.482;2022-08-19T04:04:50;9.07;;;4.25;;
7495;SDS011;3789;47.064;15.482;2022-08-19T04:07:22;6.80;;;3.50;;
7495;SDS011;3789;47.064;15.482;2022-08-19T04:09:51;7.20;;;3.85;;
7495;SDS011;3789;47.064;15.482;2022-08-19T04:12:21;6.93;;;4.20;;
7495;SDS011;3789;47.064;15.482;2022-08-19T04:14:48;6.75;;;4.68;;
7495;SDS011;3789;47.064;15.482;2022-08-19T04:17:17;6.43;;;3.55;;
7495;SDS011;3789;47.064;15.482;2022-08-19T04:19:45;8.25;;;4.10;;
7495;SDS011;3789;47.064;15.482;2022-08-19T04:22:24;11.43;;;4.53;;
7495;SDS011;3789;47.064;15.482;2022-08-19T04:24:55;7.45;;;4.43;;
7495;SDS011;3789;47.064;15.482;2022-08-19T04:27:22;8.10;;;4.32;;
7495;SDS011;3789;47.064;15.482;2022-08-19T04:29:51;7.28;;;4.38;;
7495;SDS011;3789;47.064;15.482;2022-08-19T04:32:21;6.50;;;4.20;;
7495;SDS011;3789;47.064;15.482;2022-08-19T04:34:49;7.53;;;4.70;;
7495;SDS011;3789;47.064;15.482;2022-08-19T04:37:40;9.23;;;4.85;;
7495;SDS011;3789;47.064;15.482;2022-08-19T04:40:09;8.07;;;4.82;;
7495;SDS011;3789;47.064;15.482;2022-08-19T04:42:58;9.20;;;4.28;;
7495;SDS011;3789;47.064;15.482;2022-08-19T04:45:27;5.63;;;4.07;;
7495;SDS011;3789;47.064;15.482;2022-08-19T04:48:04;6.20;;;3.78;;
7495;SDS011;3789;47.064;15.482;2022-08-19T04:50:54;7.55;;;4.07;;
7495;SDS011;3789;47.064;15.482;2022-08-19T04:53:29;6.13;;;3.58;;
7495;SDS011;3789;47.064;15.482;2022-08-19T04:56:12;7.82;;;3.30;;
7495;SDS011;3789;47.064;15.482;2022-08-19T04:58:52;7.63;;;3.95;;
7495;SDS011;3789;47.064;15.482;2022-08-19T05:01:32;8.85;;;5.15;;
7495;SDS011;3789;47.064;15.482;2022-08-19T05:04:06;5.93;;;3.15;;
7495;SDS011;3789;47.064;15.482;2022-08-19T05:06:34;5.28;;;3.67;;
7495;SDS011;3789;47.064;15.482;2022-08-19T05:09:07;7.70;;;3.78;;
7495;SDS011;3789;47.064;15.482;2022-08-19T05:11:36;6.85;;;3.97;;
7495;SDS011;3789;47.064;15.482;2022-08-19T05:14:07;4.38;;;3.05;;
7495;SDS011;3789;47.064;15.482;2022-08-19T05:16:41;5.47;;;3.63;;
7495;SDS011;3789;47.064;15.482;2022-08-19T05:19:10;6.82;;;3.75;;
7495;SDS011;3789;47.064;15.482;2022-08-19T05:22:00;9.15;;;3.35;;
7495;SDS011;3789;47.064;15.482;2022-08-19T05:24:49;5.25;;;3.50;;
7495;SDS011;3789;47.064;15.482;2022-08-19T05:27:37;9.07;;;3.40;;
7495;SDS011;3789;47.064;15.482;2022-08-19T05:30:11;6.88;;;3.70;;
7495;SDS011;3789;47.064;15.482;2022-08-19T05:32:41;5.97;;;3.58;;
7495;SDS011;3789;47.064;15.482;2022-08-19T05:35:09;6.95;;;3.75;;
7495;SDS011;3789;47.064;15.482;2022-08-19T05:37:48;6.07;;;3.60;;
7495;SDS011;3789;47.064;15.482;2022-08-19T05:40:20;8.35;;;3.70;;
7495;SDS011;3789;47.064;15.482;2022-08-19T05:42:53;6.18;;;3.80;;
7495;SDS011;3789;47.064;15.482;2022-08-19T05:45:21;7.15;;;4.05;;
7495;SDS011;3789;47.064;15.482;2022-08-19T05:47:50;8.25;;;3.88;;
7495;SDS011;3789;47.064;15.482;2022-08-19T05:50:20;6.82;;;3.83;;
7495;SDS011;3789;47.064;15.482;2022-08-19T05:52:57;6.15;;;4.60;;
7495;SDS011;3789;47.064;15.482;2022-08-19T05:55:27;9.40;;;4.07;;
7495;SDS011;3789;47.064;15.482;2022-08-19T05:57:54;6.47;;;3.53;;
7495;SDS011;3789;47.064;15.482;2022-08-19T06:00:21;7.07;;;4.45;;
7495;SDS011;3789;47.064;15.482;2022-08-19T06:03:01;9.52;;;4.70;;
7495;SDS011;3789;47.064;15.482;2022-08-19T06:05:38;7.35;;;4.30;;
7495;SDS011;3789;47.064;15.482;2022-08-19T06:08:17;6.60;;;4.70;;
7495;SDS011;3789;47.064;15.482;2022-08-19T06:11:21;8.68;;;4.68;;
7495;SDS011;3789;47.064;15.482;2022-08-19T06:14:04;7.55;;;4.35;;
7495;SDS011;3789;47.064;15.482;2022-08-19T06:16:44;10.88;;;4.60;;
7495;SDS011;3789;47.064;15.482;2022-08-19T06:19:15;5.82;;;4.25;;
7495;SDS011;3789;47.064;15.482;2022-08-19T06:21:58;6.93;;;4.38;;
7495;SDS011;3789;47.064;15.482;2022-08-19T06:24:29;6.80;;;4.57;;
7495;SDS011;3789;47.064;15.482;2022-08-19T06:26:58;10.20;;;5.07;;
7495;SDS011;3789;47.064;15.482;2022-08-19T06:29:29;8.27;;;4.10;;
7495;SDS011;3789;47.064;15.482;2022-08-19T06:32:04;5.45;;;4.03;;
7495;SDS011;3789;47.064;15.482;2022-08-19T06:34:33;5.07;;;3.88;;
7495;SDS011;3789;47.064;15.482;2022-08-19T06:37:02;7.05;;;4.20;;
7495;SDS011;3789;47.064;15.482;2022-08-19T06:39:39;6.15;;;4.28;;
7495;SDS011;3789;47.064;15.482;2022-08-19T06:42:11;8.25;;;3.83;;
7495;SDS011;3789;47.064;15.482;2022-08-19T06:44:50;7.78;;;4.05;;
7495;SDS011;3789;47.064;15.482;2022-08-19T06:47:20;9.57;;;4.53;;
7495;SDS011;3789;47.064;15.482;2022-08-19T06:49:55;5.35;;;4.15;;
7495;SDS011;3789;47.064;15.482;2022-08-19T06:52:33;5.35;;;3.85;;
7495;SDS011;3789;47.064;15.482;2022-08-19T06:55:05;7.47;;;4.28;;
7495;SDS011;3789;47.064;15.482;2022-08-19T06:57:37;7.88;;;4.25;;
7495;SDS011;3789;47.064;15.482;2022-08-19T07:00:07;5.60;;;4.28;;
7495;SDS011;3789;47.064;15.482;2022-08-19T07:02:44;7.25;;;3.60;;
7495;SDS011;3789;47.064;15.482;2022-08-19T07:05:25;4.85;;;3.55;;
7495;SDS011;3789;47.064;15.482;2022-08-19T07:07:55;6.30;;;3.35;;
7495;SDS011;3789;47.064;15.482;2022-08-19T07:10:32;5.90;;;3.80;;
7495;SDS011;3789;47.064;15.482;2022-08-19T07:13:09;6.30;;;3.60;;
7495;SDS011;3789;47.064;15.482;2022-08-19T07:15:38;6.35;;;3.42;;
7495;SDS011;3789;47.064;15.482;2022-08-19T07:18:06;7.70;;;3.55;;
7495;SDS011;3789;47.064;15.482;2022-08-19T07:20:43;6.15;;;3.35;;
7495;SDS011;3789;47.064;15.482;2022-08-19T07:23:21;7.25;;;3.75;;
7495;SDS011;3789;47.064;15.482;2022-08-19T07:25:50;5.65;;;3.63;;
7495;SDS011;3789;47.064;15.482;2022-08-19T07:28:19;6.43;;;4.05;;
7495;SDS011;3789;47.064;15.482;2022-08-19T07:30:51;7.93;;;3.95;;
7495;SDS011;3789;47.064;15.482;2022-08-19T07:33:22;6.93;;;3.83;;
7495;SDS011;3789;47.064;15.482;2022-08-19T07:35:55;5.68;;;3.60;;
7495;SDS011;3789;47.064;15.482;2022-08-19T07:38:33;6.53;;;3.90;;
7495;SDS011;3789;47.064;15.482;2022-08-19T07:41:13;8.73;;;3.88;;
7495;SDS011;3789;47.064;15.482;2022-08-19T07:43:42;8.63;;;3.70;;
7495;SDS011;3789;47.064;15.482;2022-08-19T07:46:20;6.43;;;4.20;;
7495;SDS011;3789;47.064;15.482;2022-08-19T07:48:51;8.07;;;3.42;;
7495;SDS011;3789;47.064;15.482;2022-08-19T07:51:30;6.28;;;4.40;;
7495;SDS011;3789;47.064;15.482;2022-08-19T07:54:03;4.82;;;3.60;;
7495;SDS011;3789;47.064;15.482;2022-08-19T07:56:32;6.53;;;3.72;;
7495;SDS011;3789;47.064;15.482;2022-08-19T07:59:00;6.70;;;3.83;;
7495;SDS011;3789;47.064;15.482;2022-08-19T08:01:28;6.47;;;3.63;;
7495;SDS011;3789;47.064;15.482;2022-08-19T08:04:07;5.22;;;3.20;;
7495;SDS011;3789;47.064;15.482;2022-08-19T08:06:56;5.28;;;3.30;;
7495;SDS011;3789;47.064;15.482;2022-08-19T08:09:46;4.97;;;3.42;;
7495;SDS011;3789;47.064;15.482;2022-08-19T08:12:22;4.85;;;3.20;;
7495;SDS011;3789;47.064;15.482;2022-08-19T08:15:19;7.57;;;3.38;;
7495;SDS011;3789;47.064;15.482;2022-08-19T08:17:51;5.90;;;3.25;;
7495;SDS011;3789;47.064;15.482;2022-08-19T08:20:21;4.57;;;2.90;;
7495;SDS011;3789;47.064;15.482;2022-08-19T08:22:50;9.48;;;3.97;;
7495;SDS011;3789;47.064;15.482;2022-08-19T08:25:37;7.57;;;4.03;;
7495;SDS011;3789;47.064;15.482;2022-08-19T08:28:16;7.55;;;4.47;;
7495;SDS011;3789;47.064;15.482;2022-08-19T08:30:46;6.90;;;4.10;;
7495;SDS011;3789;47.064;15.482;2022-08-19T08:33:21;10.77;;;4.05;;
7495;SDS011;3789;47.064;15.482;2022-08-19T08:36:04;5.97;;;3.88;;
7495;SDS011;3789;47.064;15.482;2022-08-19T08:38:36;5.38;;;4.03;;
7495;SDS011;3789;47.064;15.482;2022-08-19T08:41:28;7.18;;;3.88;;
7495;SDS011;3789;47.064;15.482;2022-08-19T08:44:13;5.15;;;3.28;;
7495;SDS011;3789;47.064;15.482;2022-08-19T08:46:56;4.55;;;3.30;;
7495;SDS011;3789;47.064;15.482;2022-08-19T08:52:43;4.30;;;3.13;;
7495;SDS011;3789;47.064;15.482;2022-08-19T08:55:25;5.53;;;3.63;;
7495;SDS011;3789;47.064;15.482;2022-08-19T08:58:03;6.43;;;3.17;;
7495;SDS011;3789;47.064;15.482;2022-08-19T09:00:34;7.00;;;3.50;;
7495;SDS011;3789;47.064;15.482;2022-08-19T09:03:10;7.07;;;4.18;;
7495;SDS011;3789;47.064;15.482;2022-08-19T09:11:50;5.93;;;3.47;;
7495;SDS011;3789;47.064;15.482;2022-08-19T09:17:32;6.75;;;3.08;;
7495;SDS011;3789;47.064;15.482;2022-08-19T09:22:35;6.28;;;3.55;;
7495;SDS011;3789;47.064;15.482;2022-08-19T09:25:04;4.03;;;3.33;;
7495;SDS011;3789;47.064;15.482;2022-08-19T09:27:32;4.93;;;3.35;;
7495;SDS011;3789;47.064;15.482;2022-08-19T09:30:08;5.20;;;3.95;;
7495;SDS011;3789;47.064;15.482;2022-08-19T09:32:39;5.55;;;3.85;;
7495;SDS011;3789;47.064;15.482;2022-08-19T09:35:08;7.95;;;4.10;;
7495;SDS011;3789;47.064;15.482;2022-08-19T09:37:37;5.72;;;3.97;;
7495;SDS011;3789;47.064;15.482;2022-08-19T09:40:05;8.18;;;4.18;;
7495;SDS011;3789;47.064;15.482;2022-08-19T09:42:37;5.32;;;3.53;;
7495;SDS011;3789;47.064;15.482;2022-08-19T09:45:16;5.40;;;4.00;;
7495;SDS011;3789;47.064;15.482;2022-08-19T09:47:49;5.45;;;3.75;;
7495;SDS011;3789;47.064;15.482;2022-08-19T09:50:20;7.90;;;4.03;;
7495;SDS011;3789;47.064;15.482;2022-08-19T09:52:49;5.85;;;3.85;;
7495;SDS011;3789;47.064;15.482;2022-08-19T09:55:22;5.65;;;3.97;;
7495;SDS011;3789;47.064;15.482;2022-08-19T09:57:56;4.95;;;4.18;;
7495;SDS011;3789;47.064;15.482;2022-08-19T10:00:39;7.15;;;4.28;;
7495;SDS011;3789;47.064;15.482;2022-08-19T10:03:06;6.40;;;4.10;;
7495;SDS011;3789;47.064;15.482;2022-08-19T10:05:33;7.00;;;3.55;;
7495;SDS011;3789;47.064;15.482;2022-08-19T10:08:21;5.70;;;3.65;;
7495;SDS011;3789;47.064;15.482;2022-08-19T10:10:52;7.93;;;3.85;;
7495;SDS011;3789;47.064;15.482;2022-08-19T10:13:21;6.20;;;3.80;;
7495;SDS011;3789;47.064;15.482;2022-08-19T10:15:52;4.95;;;3.33;;
7495;SDS011;3789;47.064;15.482;2022-08-19T10:18:21;4.70;;;3.85;;
7495;SDS011;3789;47.064;15.482;2022-08-19T10:20:51;6.82;;;3.55;;
7495;SDS011;3789;47.064;15.482;2022-08-19T10:23:29;5.13;;;3.42;;
7495;SDS011;3789;47.064;15.482;2022-08-19T10:25:59;6.00;;;3.67;;
7495;SDS011;3789;47.064;15.482;2022-08-19T10:28:26;6.05;;;4.22;;
7495;SDS011;3789;47.064;15.482;2022-08-19T10:30:55;5.88;;;3.80;;
7495;SDS011;3789;47.064;15.482;2022-08-19T10:33:22;4.43;;;3.50;;
7495;SDS011;3789;47.064;15.482;2022-08-19T10:36:07;5.53;;;3.65;;
7495;SDS011;3789;47.064;15.482;2022-08-19T10:38:37;9.80;;;3.53;;
7495;SDS011;3789;47.064;15.482;2022-08-19T10:41:22;5.35;;;3.60;;
7495;SDS011;3789;47.064;15.482;2022-08-19T10:43:51;5.60;;;3.65;;
7495;SDS011;3789;47.064;15.482;2022-08-19T10:46:29;7.93;;;3.90;;
7495;SDS011;3789;47.064;15.482;2022-08-19T10:48:59;5.03;;;3.83;;
7495;SDS011;3789;47.064;15.482;2022-08-19T10:51:27;5.55;;;3.60;;
7495;SDS011;3789;47.064;15.482;2022-08-19T10:54:14;5.07;;;3.63;;
7495;SDS011;3789;47.064;15.482;2022-08-19T10:56:57;5.63;;;3.78;;
7495;SDS011;3789;47.064;15.482;2022-08-19T10:59:27;17.55;;;5.82;;
7495;SDS011;3789;47.064;15.482;2022-08-19T11:02:03;6.00;;;4.18;;
7495;SDS011;3789;47.064;15.482;2022-08-19T11:04:43;9.27;;;4.13;;
7495;SDS011;3789;47.064;15.482;2022-08-19T11:07:11;5.47;;;3.30;;
7495;SDS011;3789;47.064;15.482;2022-08-19T11:09:40;10.30;;;3.53;;
7495;SDS011;3789;47.064;15.482;2022-08-19T11:12:08;7.72;;;3.72;;
7495;SDS011;3789;47.064;15.482;2022-08-19T11:14:36;5.25;;;3.53;;
7495;SDS011;3789;47.064;15.482;2022-08-19T11:17:04;5.97;;;3.22;;
7495;SDS011;3789;47.064;15.482;2022-08-19T11:19:32;3.95;;;2.85;;
7495;SDS011;3789;47.064;15.482;2022-08-19T11:22:00;5.32;;;2.50;;
7495;SDS011;3789;47.064;15.482;2022-08-19T11:24:29;5.20;;;2.42;;
7495;SDS011;3789;47.064;15.482;2022-08-19T11:27:00;5.45;;;2.55;;
7495;SDS011;3789;47.064;15.482;2022-08-19T11:29:32;4.43;;;2.60;;
7495;SDS011;3789;47.064;15.482;2022-08-19T11:32:03;6.03;;;2.40;;
7495;SDS011;3789;47.064;15.482;2022-08-19T11:34:31;6.75;;;2.60;;
7495;SDS011;3789;47.064;15.482;2022-08-19T11:36:59;4.82;;;2.65;;
7495;SDS011;3789;47.064;15.482;2022-08-19T11:39:28;5.25;;;2.92;;
7495;SDS011;3789;47.064;15.482;2022-08-19T11:42:00;5.88;;;2.88;;
7495;SDS011;3789;47.064;15.482;2022-08-19T11:44:29;5.70;;;2.40;;
7495;SDS011;3789;47.064;15.482;2022-08-19T11:46:56;4.13;;;2.33;;
7495;SDS011;3789;47.064;15.482;2022-08-19T11:49:34;5.07;;;2.33;;
7495;SDS011;3789;47.064;15.482;2022-08-19T11:52:02;4.50;;;2.80;;
7495;SDS011;3789;47.064;15.482;2022-08-19T11:54:29;11.80;;;3.63;;
7495;SDS011;3789;47.064;15.482;2022-08-19T11:56:57;6.70;;;2.92;;
7495;SDS011;3789;47.064;15.482;2022-08-19T11:59:24;6.32;;;2.72;;
7495;SDS011;3789;47.064;15.482;2022-08-19T12:01:54;4.05;;;2.92;;
7495;SDS011;3789;47.064;15.482;2022-08-19T12:04:22;6.80;;;3.20;;
7495;SDS011;3789;47.064;15.482;2022-08-19T12:06:51;6.60;;;3.10;;
7495;SDS011;3789;47.064;15.482;2022-08-19T12:09:19;7.45;;;3.03;;
7495;SDS011;3789;47.064;15.482;2022-08-19T12:11:49;7.25;;;2.72;;
7495;SDS011;3789;47.064;15.482;2022-08-19T12:14:17;7.40;;;2.92;;
7495;SDS011;3789;47.064;15.482;2022-08-19T12:16:45;6.53;;;2.70;;
7495;SDS011;3789;47.064;15.482;2022-08-19T12:19:17;5.85;;;2.55;;
7495;SDS011;3789;47.064;15.482;2022-08-19T12:21:48;5.07;;;3.03;;
7495;SDS011;3789;47.064;15.482;2022-08-19T12:24:16;10.27;;;3.08;;
7495;SDS011;3789;47.064;15.482;2022-08-19T12:26:49;4.40;;;2.40;;
7495;SDS011;3789;47.064;15.482;2022-08-19T12:29:19;4.95;;;3.00;;
7495;SDS011;3789;47.064;15.482;2022-08-19T12:31:49;4.53;;;2.30;;
7495;SDS011;3789;47.064;15.482;2022-08-19T12:34:16;4.90;;;2.67;;
7495;SDS011;3789;47.064;15.482;2022-08-19T12:36:46;5.93;;;3.00;;
7495;SDS011;3789;47.064;15.482;2022-08-19T12:39:15;4.28;;;2.60;;
7495;SDS011;3789;47.064;15.482;2022-08-19T12:41:43;7.32;;;3.05;;
7495;SDS011;3789;47.064;15.482;2022-08-19T12:44:20;5.57;;;2.60;;
7495;SDS011;3789;47.064;15.482;2022-08-19T12:46:57;6.03;;;2.85;;
7495;SDS011;3789;47.064;15.482;2022-08-19T12:49:27;7.55;;;2.80;;
7495;SDS011;3789;47.064;15.482;2022-08-19T12:52:15;5.45;;;2.35;;
7495;SDS011;3789;47.064;15.482;2022-08-19T12:54:48;5.13;;;2.67;;
7495;SDS011;3789;47.064;15.482;2022-08-19T12:57:20;7.72;;;2.90;;
7495;SDS011;3789;47.064;15.482;2022-08-19T12:59:59;5.57;;;3.08;;
7495;SDS011;3789;47.064;15.482;2022-08-19T13:02:31;3.47;;;2.50;;
7495;SDS011;3789;47.064;15.482;2022-08-19T13:05:04;6.82;;;2.72;;
7495;SDS011;3789;47.064;15.482;2022-08-19T13:07:34;8.70;;;3.20;;
7495;SDS011;3789;47.064;15.482;2022-08-19T13:10:04;5.07;;;3.65;;
7495;SDS011;3789;47.064;15.482;2022-08-19T13:12:37;4.13;;;2.63;;
7495;SDS011;3789;47.064;15.482;2022-08-19T13:15:05;6.03;;;2.75;;
7495;SDS011;3789;47.064;15.482;2022-08-19T13:17:36;7.53;;;2.90;;
7495;SDS011;3789;47.064;15.482;2022-08-19T13:20:06;8.98;;;3.08;;
7495;SDS011;3789;47.064;15.482;2022-08-19T13:22:35;6.45;;;2.90;;
7495;SDS011;3789;47.064;15.482;2022-08-19T13:25:04;5.38;;;2.55;;
7495;SDS011;3789;47.064;15.482;2022-08-19T13:27:32;4.85;;;2.90;;
7495;SDS011;3789;47.064;15.482;2022-08-19T13:30:00;6.57;;;2.92;;
7495;SDS011;3789;47.064;15.482;2022-08-19T13:32:47;6.40;;;3.00;;
7495;SDS011;3789;47.064;15.482;2022-08-19T13:35:33;4.63;;;2.60;;
7495;SDS011;3789;47.064;15.482;2022-08-19T13:38:00;6.75;;;2.92;;
7495;SDS011;3789;47.064;15.482;2022-08-19T13:40:37;6.55;;;2.95;;
7495;SDS011;3789;47.064;15.482;2022-08-19T13:43:06;6.07;;;2.35;;
7495;SDS011;3789;47.064;15.482;2022-08-19T13:45:49;5.75;;;2.35;;
7495;SDS011;3789;47.064;15.482;2022-08-19T13:48:20;5.30;;;2.70;;
7495;SDS011;3789;47.064;15.482;2022-08-19T13:50:48;6.65;;;3.00;;
7495;SDS011;3789;47.064;15.482;2022-08-19T13:53:15;7.10;;;3.00;;
7495;SDS011;3789;47.064;15.482;2022-08-19T13:55:43;7.75;;;3.60;;
7495;SDS011;3789;47.064;15.482;2022-08-19T13:58:11;6.35;;;2.63;;
7495;SDS011;3789;47.064;15.482;2022-08-19T14:03:31;7.57;;;2.75;;
7495;SDS011;3789;47.064;15.482;2022-08-19T14:05:59;6.80;;;3.03;;
7495;SDS011;3789;47.064;15.482;2022-08-19T14:08:27;5.50;;;3.20;;
7495;SDS011;3789;47.064;15.482;2022-08-19T14:10:54;3.67;;;2.45;;
7495;SDS011;3789;47.064;15.482;2022-08-19T14:13:22;4.05;;;2.60;;
7495;SDS011;3789;47.064;15.482;2022-08-19T14:15:50;4.50;;;2.65;;
7495;SDS011;3789;47.064;15.482;2022-08-19T14:18:18;6.78;;;2.97;;
7495;SDS011;3789;47.064;15.482;2022-08-19T14:20:46;6.32;;;3.20;;
7495;SDS011;3789;47.064;15.482;2022-08-19T14:23:15;5.22;;;3.13;;
7495;SDS011;3789;47.064;15.482;2022-08-19T14:25:45;4.18;;;3.30;;
7495;SDS011;3789;47.064;15.482;2022-08-19T14:28:15;4.60;;;2.80;;
7495;SDS011;3789;47.064;15.482;2022-08-19T14:30:45;7.65;;;3.08;;
7495;SDS011;3789;47.064;15.482;2022-08-19T14:33:12;8.43;;;3.38;;
7495;SDS011;3789;47.064;15.482;2022-08-19T14:35:42;6.07;;;3.10;;
7495;SDS011;3789;47.064;15.482;2022-08-19T14:38:17;6.72;;;3.05;;
7495;SDS011;3789;47.064;15.482;2022-08-19T14:41:15;5.47;;;3.10;;
7495;SDS011;3789;47.064;15.482;2022-08-19T14:43:50;9.07;;;3.25;;
7495;SDS011;3789;47.064;15.482;2022-08-19T14:46:23;6.72;;;3.53;;
7495;SDS011;3789;47.064;15.482;2022-08-19T14:48:58;8.13;;;3.15;;
7495;SDS011;3789;47.064;15.482;2022-08-19T14:51:27;4.65;;;2.78;;
7495;SDS011;3789;47.064;15.482;2022-08-19T14:53:57;5.35;;;3.15;;
7495;SDS011;3789;47.064;15.482;2022-08-19T14:56:26;7.90;;;3.25;;
7495;SDS011;3789;47.064;15.482;2022-08-19T14:59:15;5.30;;;2.78;;
7495;SDS011;3789;47.064;15.482;2022-08-19T15:01:44;4.20;;;2.75;;
7495;SDS011;3789;47.064;15.482;2022-08-19T15:04:21;6.63;;;2.90;;
7495;SDS011;3789;47.064;15.482;2022-08-19T15:06:55;4.82;;;2.53;;
7495;SDS011;3789;47.064;15.482;2022-08-19T15:09:23;6.07;;;2.45;;
7495;SDS011;3789;47.064;15.482;2022-08-19T15:11:52;7.28;;;3.13;;
7495;SDS011;3789;47.064;15.482;2022-08-19T15:14:23;6.55;;;3.03;;
7495;SDS011;3789;47.064;15.482;2022-08-19T15:16:51;5.95;;;3.15;;
7495;SDS011;3789;47.064;15.482;2022-08-19T15:19:21;5.35;;;2.80;;
7495;SDS011;3789;47.064;15.482;2022-08-19T15:21:50;6.95;;;3.20;;
7495;SDS011;3789;47.064;15.482;2022-08-19T15:24:21;6.65;;;2.85;;
7495;SDS011;3789;47.064;15.482;2022-08-19T15:26:54;4.80;;;2.90;;
7495;SDS011;3789;47.064;15.482;2022-08-19T15:29:22;5.45;;;3.17;;
7495;SDS011;3789;47.064;15.482;2022-08-19T15:31:53;4.47;;;2.75;;
7495;SDS011;3789;47.064;15.482;2022-08-19T15:34:33;7.13;;;3.10;;
7495;SDS011;3789;47.064;15.482;2022-08-19T15:37:10;4.63;;;3.33;;
7495;SDS011;3789;47.064;15.482;2022-08-19T15:39:40;4.78;;;3.20;;
7495;SDS011;3789;47.064;15.482;2022-08-19T15:42:08;6.53;;;2.88;;
7495;SDS011;3789;47.064;15.482;2022-08-19T15:44:56;8.15;;;3.13;;
7495;SDS011;3789;47.064;15.482;2022-08-19T15:47:29;5.47;;;2.72;;
7495;SDS011;3789;47.064;15.482;2022-08-19T15:50:04;6.35;;;2.78;;
7495;SDS011;3789;47.064;15.482;2022-08-19T15:52:42;4.55;;;2.97;;
7495;SDS011;3789;47.064;15.482;2022-08-19T15:55:23;5.40;;;2.92;;